createdAt,value
2022-09-26T00:01:44.871Z,17.60
2022-09-26T00:04:20.040Z,15.55
2022-09-26T00:06:49.927Z,15.75
2022-09-26T00:09:17.688Z,15.10
2022-09-26T00:11:45.044Z,15.32
2022-09-26T00:14:14.557Z,14.75
2022-09-26T00:16:41.902Z,17.63
2022-09-26T00:19:09.340Z,15.63
2022-09-26T00:21:37.024Z,18.77
2022-09-26T00:24:04.377Z,15.82
2022-09-26T00:26:32.916Z,16.50
2022-09-26T00:29:01.745Z,19.48
2022-09-26T00:31:30.034Z,18.02
2022-09-26T00:33:57.471Z,16.77
2022-09-26T00:36:37.045Z,16.15
2022-09-26T00:39:06.029Z,20.98
2022-09-26T00:41:33.288Z,17.77
2022-09-26T00:44:00.590Z,18.60
2022-09-26T00:46:38.860Z,20.10
2022-09-26T00:49:22.794Z,19.83
2022-09-26T00:51:53.345Z,25.15
2022-09-26T00:54:20.830Z,18.17
2022-09-26T00:56:49.889Z,19.52
2022-09-26T00:59:28.219Z,16.85
2022-09-26T01:01:56.932Z,19.35
2022-09-26T01:04:25.893Z,17.42
2022-09-26T01:06:53.246Z,19.50
2022-09-26T01:09:20.872Z,20.75
2022-09-26T01:11:48.101Z,18.17
2022-09-26T01:14:19.846Z,17.50
2022-09-26T01:16:48.544Z,19.13
2022-09-26T01:19:23.601Z,17.67
2022-09-26T01:21:50.788Z,17.45
2022-09-26T01:24:31.149Z,18.85
2022-09-26T01:27:09.178Z,19.13
2022-09-26T01:29:55.236Z,17.23
2022-09-26T01:32:49.212Z,19.45
2022-09-26T01:35:28.883Z,19.08
2022-09-26T01:38:11.543Z,19.55
2022-09-26T01:40:51.447Z,15.27
2022-09-26T01:43:34.150Z,15.20
2022-09-26T01:46:10.533Z,17.77
2022-09-26T01:48:40.711Z,17.35
2022-09-26T01:51:15.979Z,17.38
2022-09-26T01:53:46.258Z,18.63
2022-09-26T01:56:16.656Z,17.00
2022-09-26T01:58:46.746Z,16.38
2022-09-26T02:01:15.444Z,17.65
2022-09-26T02:04:01.943Z,18.08
2022-09-26T02:06:37.165Z,18.98
2022-09-26T02:09:36.969Z,15.90
2022-09-26T02:12:06.663Z,16.60
2022-09-26T02:14:38.122Z,18.02
2022-09-26T02:17:09.072Z,16.38
2022-09-26T02:19:46.741Z,16.58
2022-09-26T02:22:15.452Z,18.35
2022-09-26T02:24:42.859Z,17.40
2022-09-26T02:27:10.081Z,16.75
2022-09-26T02:29:40.454Z,16.80
2022-09-26T02:32:15.454Z,17.00
2022-09-26T02:34:43.643Z,17.85
2022-09-26T02:37:13.288Z,22.13
2022-09-26T02:39:41.287Z,17.20
2022-09-26T02:42:25.093Z,18.67
2022-09-26T02:45:04.706Z,20.52
2022-09-26T02:47:55.481Z,17.83
2022-09-26T02:50:39.589Z,17.60
2022-09-26T02:53:21.456Z,19.45
2022-09-26T02:56:00.655Z,17.90
2022-09-26T02:58:47.205Z,18.10
2022-09-26T03:01:22.423Z,18.55
2022-09-26T03:04:05.087Z,17.48
2022-09-26T03:06:37.873Z,18.50
2022-09-26T03:09:05.691Z,17.60
2022-09-26T03:11:34.244Z,18.27
2022-09-26T03:14:02.251Z,16.80
2022-09-26T03:16:34.599Z,16.13
2022-09-26T03:19:22.565Z,17.40
2022-09-26T03:21:49.972Z,13.13
2022-09-26T03:24:18.080Z,13.80
2022-09-26T03:26:46.674Z,15.25
2022-09-26T03:29:14.469Z,16.05
2022-09-26T03:31:42.244Z,15.88
2022-09-26T03:34:12.418Z,15.40
2022-09-26T03:36:39.976Z,14.85
2022-09-26T03:39:09.425Z,15.35
2022-09-26T03:41:42.093Z,14.57
2022-09-26T03:44:21.605Z,15.32
2022-09-26T03:47:04.284Z,18.52
2022-09-26T03:49:34.947Z,12.48
2022-09-26T03:52:03.844Z,16.05
2022-09-26T03:54:31.192Z,13.73
2022-09-26T03:56:58.448Z,12.95
2022-09-26T03:59:25.639Z,15.35
2022-09-26T04:01:53.203Z,14.85
2022-09-26T04:04:20.643Z,15.60
2022-09-26T04:06:51.025Z,15.85
2022-09-26T04:09:18.849Z,16.13
2022-09-26T04:11:50.261Z,17.90
2022-09-26T04:14:18.372Z,16.70
2022-09-26T04:16:49.206Z,18.98
2022-09-26T04:19:36.809Z,16.27
2022-09-26T04:22:04.414Z,17.52
2022-09-26T04:24:33.552Z,15.45
2022-09-26T04:27:00.950Z,14.07
2022-09-26T04:29:29.455Z,14.50
2022-09-26T04:32:15.828Z,15.15
2022-09-26T04:35:06.261Z,14.02
2022-09-26T04:37:37.019Z,13.63
2022-09-26T04:40:04.796Z,18.48
2022-09-26T04:42:36.888Z,14.30
2022-09-26T04:45:05.507Z,14.90
2022-09-26T04:47:33.380Z,13.25
2022-09-26T04:50:36.011Z,17.17
2022-09-26T04:53:06.759Z,14.13
2022-09-26T04:55:38.056Z,13.18
2022-09-26T04:58:05.272Z,11.98
2022-09-26T05:00:32.695Z,12.98
2022-09-26T05:03:05.078Z,13.23
2022-09-26T05:05:33.697Z,12.85
2022-09-26T05:08:00.954Z,12.38
2022-09-26T05:10:29.304Z,13.70
2022-09-26T05:13:03.374Z,13.45
2022-09-26T05:15:31.078Z,16.02
2022-09-26T05:17:59.494Z,14.00
2022-09-26T05:20:31.928Z,14.98
2022-09-26T05:23:04.440Z,13.10
2022-09-26T05:25:55.673Z,13.07
2022-09-26T05:28:24.074Z,14.68
2022-09-26T05:30:51.876Z,14.45
2022-09-26T05:33:21.195Z,13.18
2022-09-26T05:35:53.255Z,14.63
2022-09-26T05:38:20.847Z,13.77
2022-09-26T05:40:57.217Z,13.02
2022-09-26T05:43:27.404Z,13.90
2022-09-26T05:46:00.167Z,12.50
2022-09-26T05:48:34.441Z,12.65
2022-09-26T05:51:11.821Z,12.40
2022-09-26T05:53:42.517Z,13.05
2022-09-26T05:56:13.698Z,11.95
2022-09-26T05:59:02.605Z,12.90
2022-09-26T06:01:48.509Z,13.80
2022-09-26T06:04:29.304Z,13.68
2022-09-26T06:07:16.891Z,11.07
2022-09-26T06:09:44.592Z,11.55
2022-09-26T06:12:21.174Z,11.27
2022-09-26T06:14:48.683Z,11.48
2022-09-26T06:17:15.923Z,10.38
2022-09-26T06:19:44.387Z,11.15
2022-09-26T06:22:11.924Z,10.57
2022-09-26T06:24:39.397Z,10.45
2022-09-26T06:27:10.320Z,10.87
2022-09-26T06:29:38.140Z,13.32
2022-09-26T06:32:05.598Z,11.95
2022-09-26T06:34:51.647Z,10.93
2022-09-26T06:37:40.003Z,10.65
2022-09-26T06:40:08.995Z,9.55
2022-09-26T06:42:39.071Z,8.75
2022-09-26T06:45:27.101Z,10.02
2022-09-26T06:48:09.494Z,10.20
2022-09-26T06:50:57.015Z,9.55
2022-09-26T06:53:28.453Z,9.48
2022-09-26T06:55:58.987Z,9.63
2022-09-26T06:58:27.633Z,9.10
2022-09-26T07:01:10.071Z,8.88
2022-09-26T07:03:45.952Z,7.05
2022-09-26T07:06:31.813Z,8.15
2022-09-26T07:09:05.510Z,9.02
2022-09-26T07:12:12.761Z,10.30
2022-09-26T07:14:34.875Z,8.50
2022-09-26T07:17:15.680Z,8.82
2022-09-26T07:19:46.603Z,9.88
2022-09-26T07:22:46.558Z,9.00
2022-09-26T07:25:14.407Z,8.40
2022-09-26T07:27:41.824Z,9.20
2022-09-26T07:30:09.709Z,9.73
2022-09-26T07:32:47.885Z,8.45
2022-09-26T07:35:37.668Z,8.35
2022-09-26T07:38:05.354Z,8.15
2022-09-26T07:40:32.834Z,7.90
2022-09-26T07:43:19.060Z,8.25
2022-09-26T07:46:09.915Z,8.20
2022-09-26T07:48:57.488Z,8.23
2022-09-26T07:51:43.650Z,7.75
2022-09-26T07:54:16.122Z,8.45
2022-09-26T07:57:03.340Z,8.52
2022-09-26T07:59:38.198Z,8.60
2022-09-26T08:02:25.576Z,7.55
2022-09-26T08:04:58.796Z,10.73
2022-09-26T08:07:29.137Z,8.27
2022-09-26T08:10:03.025Z,8.05
2022-09-26T08:12:50.051Z,10.07
2022-09-26T08:15:36.238Z,8.82
2022-09-26T08:18:06.352Z,8.05
2022-09-26T08:20:33.928Z,7.85
2022-09-26T08:23:01.384Z,7.43
2022-09-26T08:25:29.562Z,7.18
2022-09-26T08:28:07.327Z,7.10
2022-09-26T08:30:34.596Z,7.60
2022-09-26T08:33:03.786Z,6.18
2022-09-26T08:35:38.494Z,7.13
2022-09-26T08:38:31.863Z,6.63
2022-09-26T08:41:23.646Z,7.85
2022-09-26T08:44:24.050Z,5.30
2022-09-26T08:47:34.835Z,5.82
2022-09-26T08:50:45.405Z,5.40
2022-09-26T08:53:42.039Z,5.53
2022-09-26T08:56:17.748Z,5.50
2022-09-26T08:58:48.209Z,5.80
2022-09-26T09:04:15.819Z,6.00
2022-09-26T09:06:43.728Z,3.88
2022-09-26T09:09:12.369Z,7.25
2022-09-26T09:12:07.890Z,5.57
2022-09-26T09:15:13.782Z,4.75
2022-09-26T09:18:20.826Z,4.60
2022-09-26T09:21:26.808Z,4.50
2022-09-26T09:24:19.068Z,4.13
2022-09-26T09:29:59.277Z,5.35
2022-09-26T09:33:04.544Z,4.57
2022-09-26T09:35:53.280Z,6.35
2022-09-26T09:38:32.343Z,4.50
2022-09-26T09:41:22.832Z,5.97
2022-09-26T09:43:54.553Z,5.25
2022-09-26T09:46:30.091Z,4.82
2022-09-26T09:49:01.006Z,5.72
2022-09-26T09:51:39.432Z,7.87
2022-09-26T09:54:09.939Z,4.55
2022-09-26T09:56:37.348Z,4.88
2022-09-26T09:59:10.510Z,5.63
2022-09-26T10:02:00.799Z,4.35
2022-09-26T10:04:37.606Z,4.28
2022-09-26T10:07:05.506Z,7.20
2022-09-26T10:09:41.826Z,5.82
2022-09-26T10:12:42.145Z,5.45
2022-09-26T10:15:36.756Z,4.50
2022-09-26T10:18:24.826Z,3.90
2022-09-26T10:21:18.945Z,4.40
2022-09-26T10:23:47.669Z,5.45
2022-09-26T10:26:35.840Z,4.78
2022-09-26T10:29:10.749Z,3.72
2022-09-26T10:31:43.208Z,4.35
2022-09-26T10:34:28.061Z,4.22
2022-09-26T10:36:56.241Z,4.80
2022-09-26T10:39:44.546Z,4.40
2022-09-26T10:42:20.127Z,4.70
2022-09-26T10:44:50.713Z,5.47
2022-09-26T10:50:16.548Z,5.90
2022-09-26T10:53:08.346Z,4.00
2022-09-26T10:55:40.465Z,4.10
2022-09-26T10:58:13.693Z,4.05
2022-09-26T11:00:44.206Z,3.63
2022-09-26T11:03:20.944Z,3.78
2022-09-26T11:06:32.968Z,2.60
2022-09-26T11:09:30.875Z,2.63
2022-09-26T11:12:39.934Z,2.60
2022-09-26T11:15:12.778Z,2.25
2022-09-26T11:17:50.916Z,4.30
2022-09-26T11:20:37.129Z,2.28
2022-09-26T11:23:40.528Z,2.40
2022-09-26T11:26:19.374Z,2.58
2022-09-26T11:29:03.756Z,3.05
2022-09-26T11:31:48.587Z,5.10
2022-09-26T11:34:38.473Z,2.50
2022-09-26T11:37:26.810Z,4.60
2022-09-26T11:40:07.331Z,2.95
2022-09-26T11:42:46.949Z,3.83
2022-09-26T11:45:23.598Z,3.38
2022-09-26T11:48:21.468Z,2.90
2022-09-26T11:51:20.472Z,3.55
2022-09-26T11:54:00.897Z,2.83
2022-09-26T11:56:47.286Z,2.72
2022-09-26T11:59:17.774Z,2.80
2022-09-26T12:01:55.129Z,2.70
2022-09-26T12:04:38.745Z,2.50
2022-09-26T12:07:12.881Z,3.03
2022-09-26T12:10:01.647Z,2.60
2022-09-26T12:12:40.418Z,3.95
2022-09-26T12:15:12.763Z,3.33
2022-09-26T12:17:59.523Z,4.15
2022-09-26T12:20:45.097Z,2.53
2022-09-26T12:23:36.971Z,2.28
2022-09-26T12:26:05.043Z,3.10
2022-09-26T12:28:44.621Z,2.50
2022-09-26T12:31:14.911Z,2.67
2022-09-26T12:33:51.051Z,3.85
2022-09-26T12:36:40.346Z,2.25
2022-09-26T12:39:10.612Z,2.15
2022-09-26T12:41:53.297Z,2.42
2022-09-26T12:44:23.762Z,2.45
2022-09-26T12:47:14.361Z,2.38
2022-09-26T12:49:58.401Z,2.13
2022-09-26T12:52:41.469Z,4.63
2022-09-26T12:55:16.786Z,1.98
2022-09-26T12:57:46.844Z,2.05
2022-09-26T13:00:21.472Z,2.83
2022-09-26T13:03:07.820Z,1.98
2022-09-26T13:05:54.058Z,2.25
2022-09-26T13:08:21.286Z,2.97
2022-09-26T13:10:51.643Z,1.90
2022-09-26T13:13:30.063Z,4.75
2022-09-26T13:16:04.104Z,3.20
2022-09-26T13:18:37.564Z,4.70
2022-09-26T13:21:12.086Z,3.35
2022-09-26T13:23:41.503Z,3.33
2022-09-26T13:26:14.649Z,3.00
2022-09-26T13:29:06.280Z,2.78
2022-09-26T13:31:36.254Z,3.15
2022-09-26T13:34:05.926Z,3.13
2022-09-26T13:36:34.901Z,3.40
2022-09-26T13:39:07.935Z,3.72
2022-09-26T13:41:48.300Z,3.08
2022-09-26T13:44:15.776Z,3.50
2022-09-26T13:47:01.822Z,3.58
2022-09-26T13:49:35.195Z,4.03
2022-09-26T13:52:11.605Z,3.75
2022-09-26T13:54:44.015Z,3.67
2022-09-26T13:57:33.329Z,3.47
2022-09-26T14:00:01.873Z,3.75
2022-09-26T14:02:32.187Z,3.15
2022-09-26T14:04:59.426Z,3.17
2022-09-26T14:08:03.882Z,3.60
2022-09-26T14:10:31.158Z,3.47
2022-09-26T14:13:06.588Z,4.28
2022-09-26T14:15:49.460Z,3.67
2022-09-26T14:18:17.002Z,4.20
2022-09-26T14:20:56.735Z,5.68
2022-09-26T14:23:53.635Z,6.07
2022-09-26T14:26:22.219Z,4.97
2022-09-26T14:28:56.507Z,5.72
2022-09-26T14:31:26.708Z,4.70
2022-09-26T14:34:14.400Z,6.72
2022-09-26T14:36:43.563Z,7.60
2022-09-26T14:39:23.874Z,4.70
2022-09-26T14:41:51.190Z,4.75
2022-09-26T14:44:19.788Z,7.07
2022-09-26T14:46:51.795Z,4.32
2022-09-26T14:49:23.468Z,6.05
2022-09-26T14:51:51.806Z,5.68
2022-09-26T14:54:23.565Z,4.32
2022-09-26T14:59:27.439Z,4.85
2022-09-26T15:02:17.867Z,4.70
2022-09-26T15:04:51.176Z,2.90
2022-09-26T15:07:21.414Z,2.75
2022-09-26T15:10:00.963Z,3.25
2022-09-26T15:12:31.818Z,3.50
2022-09-26T15:15:13.900Z,2.97
2022-09-26T15:17:46.192Z,4.32
2022-09-26T15:20:15.744Z,3.30
2022-09-26T15:22:43.193Z,4.07
2022-09-26T15:25:16.617Z,2.85
2022-09-26T15:27:46.195Z,2.90
2022-09-26T15:30:17.543Z,2.97
2022-09-26T15:32:49.098Z,2.83
2022-09-26T15:37:44.046Z,2.70
2022-09-26T15:40:31.776Z,3.58
2022-09-26T15:43:07.973Z,2.20
2022-09-26T15:45:35.446Z,1.83
2022-09-26T15:48:04.784Z,2.38
2022-09-26T15:50:35.131Z,1.63
2022-09-26T15:53:06.301Z,2.85
2022-09-26T15:55:43.501Z,2.50
2022-09-26T15:58:13.847Z,2.05
2022-09-26T16:00:43.181Z,2.40
2022-09-26T16:03:36.901Z,3.53
2022-09-26T16:06:34.294Z,2.60
2022-09-26T16:09:05.455Z,2.50
2022-09-26T16:11:32.936Z,2.35
2022-09-26T16:14:00.791Z,2.33
2022-09-26T16:16:31.857Z,4.63
2022-09-26T16:19:03.661Z,5.78
2022-09-26T16:24:02.490Z,3.38
2022-09-26T16:26:31.719Z,3.95
2022-09-26T16:29:00.249Z,4.18
2022-09-26T16:31:34.430Z,2.90
2022-09-26T16:34:02.399Z,2.75
2022-09-26T16:36:31.056Z,3.00
2022-09-26T16:39:00.108Z,2.83
2022-09-26T16:41:59.438Z,3.30
2022-09-26T16:44:27.583Z,3.30
2022-09-26T16:46:59.292Z,3.95
2022-09-26T16:49:33.935Z,4.28
2022-09-26T16:52:30.348Z,5.50
2022-09-26T16:54:58.991Z,5.65
2022-09-26T16:57:28.916Z,7.32
2022-09-26T17:00:19.146Z,5.57
2022-09-26T17:02:46.580Z,5.20
2022-09-26T17:05:15.211Z,5.82
2022-09-26T17:07:42.467Z,5.45
2022-09-26T17:10:09.971Z,4.60
2022-09-26T17:12:37.331Z,5.32
2022-09-26T17:15:06.500Z,8.63
2022-09-26T17:17:34.386Z,6.28
2022-09-26T17:20:02.136Z,6.97
2022-09-26T17:22:29.479Z,5.82
2022-09-26T17:24:56.837Z,5.47
2022-09-26T17:27:27.042Z,5.15
2022-09-26T17:29:58.112Z,6.93
2022-09-26T17:32:38.153Z,6.28
2022-09-26T17:35:13.756Z,8.85
2022-09-26T17:37:41.025Z,14.20
2022-09-26T17:40:20.747Z,12.07
2022-09-26T17:42:48.159Z,14.15
2022-09-26T17:45:15.514Z,16.40
2022-09-26T17:47:42.880Z,25.23
2022-09-26T17:50:19.816Z,25.98
2022-09-26T17:52:47.541Z,25.88
2022-09-26T17:55:14.824Z,20.60
2022-09-26T17:57:42.623Z,22.60
2022-09-26T18:00:15.323Z,21.25
2022-09-26T18:02:44.383Z,13.82
2022-09-26T18:05:18.854Z,15.95
2022-09-26T18:07:47.145Z,15.50
2022-09-26T18:10:19.762Z,15.00
2022-09-26T18:12:48.012Z,16.88
2022-09-26T18:15:17.442Z,12.68
2022-09-26T18:17:44.733Z,15.75
2022-09-26T18:20:11.920Z,13.52
2022-09-26T18:22:39.212Z,13.50
2022-09-26T18:25:08.126Z,16.65
2022-09-26T18:27:40.435Z,20.05
2022-09-26T18:30:08.420Z,14.73
2022-09-26T18:32:38.932Z,16.98
2022-09-26T18:35:07.543Z,13.48
2022-09-26T18:37:34.806Z,12.88
2022-09-26T18:40:04.398Z,15.73
2022-09-26T18:42:32.952Z,11.93
2022-09-26T18:45:04.251Z,14.13
2022-09-26T18:49:59.242Z,16.33
2022-09-26T18:52:26.634Z,16.85
2022-09-26T18:55:13.864Z,27.27
2022-09-26T18:58:00.096Z,25.45
2022-09-26T19:00:27.883Z,28.92
2022-09-26T19:02:55.212Z,26.83
2022-09-26T19:05:22.552Z,20.20
2022-09-26T19:07:49.869Z,21.52
2022-09-26T19:10:17.921Z,24.42
2022-09-26T19:12:45.251Z,22.45
2022-09-26T19:15:16.644Z,20.02
2022-09-26T19:17:43.966Z,12.40
2022-09-26T19:20:11.266Z,9.23
2022-09-26T19:22:38.617Z,9.00
2022-09-26T19:25:06.932Z,9.43
2022-09-26T19:27:39.435Z,8.35
2022-09-26T19:30:08.556Z,7.32
2022-09-26T19:32:37.673Z,7.45
2022-09-26T19:35:25.392Z,7.13
2022-09-26T19:37:53.487Z,5.63
2022-09-26T19:40:22.003Z,8.05
2022-09-26T19:42:49.423Z,5.07
2022-09-26T19:45:16.680Z,5.78
2022-09-26T19:47:45.608Z,5.05
2022-09-26T19:50:23.573Z,4.32
2022-09-26T19:52:54.766Z,5.10
2022-09-26T19:55:26.438Z,6.47
2022-09-26T19:57:54.360Z,4.70
2022-09-26T20:00:21.703Z,4.95
2022-09-26T20:02:51.742Z,5.72
2022-09-26T20:05:24.031Z,6.45
2022-09-26T20:07:52.212Z,5.70
2022-09-26T20:10:20.957Z,5.18
2022-09-26T20:12:51.237Z,9.55
2022-09-26T20:15:21.983Z,6.00
2022-09-26T20:17:49.531Z,6.60
2022-09-26T20:20:21.967Z,9.65
2022-09-26T20:22:51.058Z,5.70
2022-09-26T20:25:28.473Z,6.15
2022-09-26T20:27:56.580Z,5.30
2022-09-26T20:30:42.930Z,6.57
2022-09-26T20:33:10.764Z,5.53
2022-09-26T20:35:40.543Z,5.80
2022-09-26T20:38:09.944Z,6.15
2022-09-26T20:40:38.321Z,5.30
2022-09-26T20:43:14.323Z,7.20
2022-09-26T20:45:42.332Z,9.50
2022-09-26T20:48:16.999Z,11.63
2022-09-26T20:50:44.406Z,10.40
2022-09-26T20:53:17.605Z,10.25
2022-09-26T20:55:45.214Z,6.90
2022-09-26T20:58:12.467Z,9.23
2022-09-26T21:00:40.724Z,8.52
2022-09-26T21:03:10.462Z,7.20
2022-09-26T21:05:37.937Z,10.25
2022-09-26T21:08:08.979Z,5.60
2022-09-26T21:10:36.202Z,7.23
2022-09-26T21:13:03.485Z,5.90
2022-09-26T21:15:31.788Z,5.60
2022-09-26T21:17:59.303Z,5.88
2022-09-26T21:20:26.523Z,5.50
2022-09-26T21:23:09.271Z,5.40
2022-09-26T21:25:36.580Z,9.63
2022-09-26T21:28:12.054Z,6.28
2022-09-26T21:30:39.353Z,4.85
2022-09-26T21:33:06.650Z,7.40
2022-09-26T21:35:33.931Z,5.53
2022-09-26T21:38:01.388Z,5.43
2022-09-26T21:40:29.662Z,6.07
2022-09-26T21:43:03.848Z,5.78
2022-09-26T21:45:31.083Z,6.85
2022-09-26T21:47:58.843Z,9.82
2022-09-26T21:50:28.665Z,8.88
2022-09-26T21:53:10.700Z,5.28
2022-09-26T21:55:42.403Z,5.97
2022-09-26T21:58:12.992Z,7.35
2022-09-26T22:00:40.831Z,6.75
2022-09-26T22:03:08.104Z,4.93
2022-09-26T22:05:35.748Z,5.28
2022-09-26T22:08:03.076Z,6.25
2022-09-26T22:10:31.299Z,5.95
2022-09-26T22:12:58.903Z,6.60
2022-09-26T22:15:26.200Z,5.38
2022-09-26T22:17:54.366Z,7.13
2022-09-26T22:20:22.423Z,6.18
2022-09-26T22:22:50.491Z,5.43
2022-09-26T22:25:17.854Z,5.53
2022-09-26T22:27:45.432Z,5.68
2022-09-26T22:30:13.228Z,8.43
2022-09-26T22:32:40.546Z,7.25
2022-09-26T22:35:08.034Z,7.40
2022-09-26T22:37:35.358Z,6.60
2022-09-26T22:40:03.200Z,6.22
2022-09-26T22:42:30.535Z,8.50
2022-09-26T22:44:58.047Z,6.30
2022-09-26T22:47:25.604Z,8.38
2022-09-26T22:49:53.000Z,6.53
2022-09-26T22:52:20.190Z,5.63
2022-09-26T22:54:47.996Z,6.90
2022-09-26T22:57:16.536Z,5.25
2022-09-26T22:59:43.784Z,4.88
2022-09-26T23:02:11.161Z,5.63
2022-09-26T23:04:47.712Z,7.15
2022-09-26T23:07:16.116Z,5.72
2022-09-26T23:09:43.487Z,5.85
2022-09-26T23:12:10.918Z,7.43
2022-09-26T23:14:38.220Z,6.85
2022-09-26T23:17:05.737Z,5.20
2022-09-26T23:19:33.079Z,7.07
2022-09-26T23:22:00.781Z,4.95
2022-09-26T23:24:27.996Z,5.30
2022-09-26T23:26:57.414Z,7.43
2022-09-26T23:29:25.148Z,5.40
2022-09-26T23:31:52.494Z,6.78
2022-09-26T23:34:19.724Z,6.95
2022-09-26T23:36:47.080Z,6.95
2022-09-26T23:39:14.455Z,6.85
2022-09-26T23:41:41.822Z,5.15
2022-09-26T23:44:09.529Z,5.78
2022-09-26T23:46:37.061Z,5.40
2022-09-26T23:49:04.355Z,5.75
2022-09-26T23:51:31.606Z,4.88
2022-09-26T23:53:58.822Z,7.85
2022-09-26T23:56:26.151Z,5.95
2022-09-26T23:58:53.421Z,6.28
